createdAt,value
2022-08-05T00:01:36.304Z,4.93
2022-08-05T00:04:19.125Z,5.05
2022-08-05T00:06:47.035Z,6.28
2022-08-05T00:09:15.985Z,6.72
2022-08-05T00:14:27.733Z,5.32
2022-08-05T00:16:59.077Z,7.45
2022-08-05T00:19:34.002Z,5.32
2022-08-05T00:22:13.250Z,2.47
2022-08-05T00:24:42.238Z,5.65
2022-08-05T00:27:10.435Z,2.30
2022-08-05T00:29:41.626Z,3.47
2022-08-05T00:32:15.265Z,4.57
2022-08-05T00:35:03.918Z,4.47
2022-08-05T00:37:50.720Z,4.57
2022-08-05T00:40:27.506Z,2.75
2022-08-05T00:43:01.055Z,5.05
2022-08-05T00:45:43.075Z,4.45
2022-08-05T00:48:18.221Z,6.25
2022-08-05T00:50:59.049Z,3.13
2022-08-05T00:54:01.325Z,3.83
2022-08-05T00:56:17.329Z,3.03
2022-08-05T00:58:45.148Z,2.25
2022-08-05T01:01:13.602Z,3.25
2022-08-05T01:03:42.489Z,6.07
2022-08-05T01:06:15.456Z,4.13
2022-08-05T01:08:44.467Z,4.18
2022-08-05T01:11:33.334Z,4.03
2022-08-05T01:14:30.510Z,2.65
2022-08-05T01:17:30.269Z,3.05
2022-08-05T01:20:03.274Z,4.47
2022-08-05T01:22:42.704Z,10.60
2022-08-05T01:25:40.923Z,2.80
2022-08-05T01:28:30.687Z,2.63
2022-08-05T01:31:28.051Z,2.40
2022-08-05T01:34:16.282Z,4.95
2022-08-05T01:36:49.361Z,5.28
2022-08-05T01:39:45.637Z,4.55
2022-08-05T01:42:12.976Z,6.65
2022-08-05T01:44:44.284Z,2.42
2022-08-05T01:47:22.836Z,4.25
2022-08-05T01:50:01.667Z,6.80
2022-08-05T01:52:32.714Z,2.40
2022-08-05T01:55:04.384Z,4.13
2022-08-05T01:58:29.945Z,4.40
2022-08-05T02:00:30.349Z,4.63
2022-08-05T02:03:03.926Z,3.03
2022-08-05T02:05:35.957Z,4.53
2022-08-05T02:08:05.234Z,3.53
2022-08-05T02:10:42.650Z,6.43
2022-08-05T02:13:20.741Z,7.55
2022-08-05T02:16:01.506Z,2.88
2022-08-05T02:18:41.799Z,10.48
2022-08-05T02:21:18.275Z,3.72
2022-08-05T02:23:53.377Z,5.93
2022-08-05T02:26:35.529Z,6.68
2022-08-05T02:29:04.160Z,4.95
2022-08-05T02:31:34.969Z,5.60
2022-08-05T02:34:09.197Z,5.70
2022-08-05T02:36:43.925Z,6.72
2022-08-05T02:39:12.988Z,7.32
2022-08-05T02:41:57.941Z,7.90
2022-08-05T02:44:30.583Z,5.07
2022-08-05T02:47:00.734Z,2.42
2022-08-05T02:49:35.688Z,3.95
2022-08-05T02:52:29.383Z,5.22
2022-08-05T02:55:01.865Z,2.47
2022-08-05T02:58:09.763Z,4.70
2022-08-05T03:00:21.663Z,2.97
2022-08-05T03:02:50.538Z,6.03
2022-08-05T03:05:21.725Z,7.07
2022-08-05T03:08:09.383Z,5.82
2022-08-05T03:10:37.353Z,9.63
2022-08-05T03:13:16.848Z,2.47
2022-08-05T03:15:48.348Z,7.20
2022-08-05T03:18:19.321Z,2.90
2022-08-05T03:20:57.310Z,4.95
2022-08-05T03:23:25.430Z,4.72
2022-08-05T03:26:03.746Z,5.32
2022-08-05T03:28:40.943Z,6.45
2022-08-05T03:31:09.336Z,10.02
2022-08-05T03:33:50.950Z,4.15
2022-08-05T03:36:30.478Z,3.10
2022-08-05T03:38:58.637Z,8.20
2022-08-05T03:41:26.179Z,3.55
2022-08-05T03:44:11.234Z,5.47
2022-08-05T03:46:39.526Z,5.93
2022-08-05T03:49:06.939Z,3.45
2022-08-05T03:52:38.144Z,4.53
2022-08-05T03:55:07.137Z,15.25
2022-08-05T03:57:46.108Z,3.60
2022-08-05T04:00:16.323Z,5.90
2022-08-05T04:02:57.903Z,15.93
2022-08-05T04:05:34.714Z,3.67
2022-08-05T04:08:05.792Z,5.82
2022-08-05T04:10:45.166Z,5.32
2022-08-05T04:13:13.268Z,7.15
2022-08-05T04:16:03.319Z,10.38
2022-08-05T04:18:28.955Z,4.70
2022-08-05T04:21:01.010Z,11.48
2022-08-05T04:24:05.677Z,8.00
2022-08-05T04:26:17.512Z,17.10
2022-08-05T04:28:51.107Z,11.52
2022-08-05T04:31:20.383Z,17.25
2022-08-05T04:34:17.663Z,14.52
2022-08-05T04:36:45.972Z,16.67
2022-08-05T04:39:18.250Z,7.47
2022-08-05T04:41:48.063Z,10.32
2022-08-05T04:44:21.425Z,11.60
2022-08-05T04:46:58.927Z,10.70
2022-08-05T04:49:39.053Z,12.25
2022-08-05T04:52:15.719Z,13.95
2022-08-05T04:54:43.274Z,29.58
2022-08-05T04:57:10.709Z,25.98
2022-08-05T04:59:40.745Z,33.38
2022-08-05T05:02:37.136Z,33.30
2022-08-05T05:05:02.358Z,28.02
2022-08-05T05:07:32.249Z,20.15
2022-08-05T05:10:04.460Z,10.68
2022-08-05T05:12:32.620Z,21.30
2022-08-05T05:15:00.043Z,19.77
2022-08-05T05:17:56.460Z,42.57
2022-08-05T05:20:28.369Z,41.08
2022-08-05T05:23:08.191Z,49.07
2022-08-05T05:25:47.884Z,65.80
2022-08-05T05:28:15.381Z,46.50
2022-08-05T05:30:43.146Z,31.00
2022-08-05T05:33:17.704Z,31.65
2022-08-05T05:35:50.929Z,38.50
2022-08-05T05:38:22.722Z,20.27
2022-08-05T05:40:56.237Z,12.77
2022-08-05T05:43:54.318Z,10.27
2022-08-05T05:46:16.061Z,2.65
2022-08-05T05:48:48.038Z,8.20
2022-08-05T05:51:24.195Z,10.88
2022-08-05T05:53:57.736Z,7.63
2022-08-05T05:56:34.143Z,7.38
2022-08-05T05:59:07.657Z,5.28
2022-08-05T06:01:39.557Z,5.97
2022-08-05T06:04:11.668Z,4.93
2022-08-05T06:06:47.536Z,5.97
2022-08-05T06:09:25.793Z,9.38
2022-08-05T06:11:59.986Z,4.43
2022-08-05T06:14:34.746Z,4.47
2022-08-05T06:17:24.200Z,4.68
2022-08-05T06:19:59.043Z,6.18
2022-08-05T06:22:33.862Z,9.15
2022-08-05T06:25:59.388Z,8.63
2022-08-05T06:28:12.584Z,10.18
2022-08-05T06:30:38.538Z,4.63
2022-08-05T06:33:09.958Z,4.75
2022-08-05T06:36:07.872Z,4.90
2022-08-05T06:38:36.429Z,5.93
2022-08-05T06:41:05.505Z,5.75
2022-08-05T06:43:58.487Z,2.72
2022-08-05T06:46:29.711Z,3.55
2022-08-05T06:48:59.167Z,2.75
2022-08-05T06:51:31.015Z,4.45
2022-08-05T06:54:00.379Z,5.18
2022-08-05T06:56:34.169Z,5.55
2022-08-05T06:59:08.426Z,4.85
2022-08-05T07:01:40.560Z,7.93
2022-08-05T07:04:09.148Z,1.75
2022-08-05T07:06:37.386Z,2.08
2022-08-05T07:09:05.213Z,4.05
2022-08-05T07:11:36.766Z,5.13
2022-08-05T07:14:30.299Z,14.23
2022-08-05T07:18:00.541Z,2.88
2022-08-05T07:20:34.118Z,9.90
2022-08-05T07:22:38.095Z,2.97
2022-08-05T07:25:22.432Z,3.15
2022-08-05T07:27:58.151Z,4.93
2022-08-05T07:30:32.077Z,4.28
2022-08-05T07:33:08.794Z,4.53
2022-08-05T07:36:04.527Z,6.43
2022-08-05T07:38:33.197Z,1.98
2022-08-05T07:41:35.296Z,6.20
2022-08-05T07:43:57.949Z,3.58
2022-08-05T07:46:27.386Z,3.72
2022-08-05T07:49:02.311Z,1.73
2022-08-05T07:51:37.195Z,4.72
2022-08-05T07:54:08.415Z,5.70
2022-08-05T07:56:59.931Z,3.72
2022-08-05T07:59:38.705Z,6.53
2022-08-05T08:02:16.902Z,5.80
2022-08-05T08:04:49.402Z,4.63
2022-08-05T08:07:22.131Z,3.88
2022-08-05T08:09:52.467Z,8.80
2022-08-05T08:12:35.287Z,2.92
2022-08-05T08:15:13.871Z,9.65
2022-08-05T08:17:46.125Z,7.80
2022-08-05T08:21:00.186Z,4.75
2022-08-05T08:24:00.436Z,3.85
2022-08-05T08:26:00.048Z,2.20
2022-08-05T08:28:37.244Z,4.07
2022-08-05T08:31:10.051Z,2.67
2022-08-05T08:33:45.968Z,3.55
2022-08-05T08:36:38.261Z,4.97
2022-08-05T08:39:15.661Z,1.50
2022-08-05T08:41:52.511Z,4.53
2022-08-05T08:45:22.191Z,2.13
2022-08-05T08:47:47.285Z,2.47
2022-08-05T08:50:22.873Z,1.65
2022-08-05T08:53:02.045Z,2.05
2022-08-05T08:56:03.512Z,5.25
2022-08-05T08:58:26.227Z,2.70
2022-08-05T09:01:07.492Z,3.90
2022-08-05T09:03:45.038Z,3.85
2022-08-05T09:06:17.201Z,3.03
2022-08-05T09:08:47.966Z,2.22
2022-08-05T09:11:15.654Z,3.38
2022-08-05T09:14:09.535Z,3.10
2022-08-05T09:16:30.883Z,5.97
2022-08-05T09:18:59.297Z,5.25
2022-08-05T09:22:21.973Z,4.40
2022-08-05T09:24:16.080Z,4.63
2022-08-05T09:26:56.238Z,2.50
2022-08-05T09:29:47.969Z,4.43
2022-08-05T09:32:41.620Z,2.40
2022-08-05T09:35:11.606Z,5.63
2022-08-05T09:40:44.601Z,6.55
2022-08-05T09:43:40.605Z,2.28
2022-08-05T09:46:34.082Z,10.55
2022-08-05T09:49:18.631Z,1.48
2022-08-05T09:51:49.512Z,4.38
2022-08-05T09:56:57.630Z,2.97
2022-08-05T09:59:29.049Z,1.45
2022-08-05T10:02:02.712Z,1.98
2022-08-05T10:04:39.665Z,1.33
2022-08-05T10:07:19.884Z,1.13
2022-08-05T10:10:15.136Z,2.17
2022-08-05T10:12:54.782Z,2.83
2022-08-05T10:15:29.618Z,5.15
2022-08-05T10:18:23.056Z,1.20
2022-08-05T10:20:53.587Z,1.55
2022-08-05T10:23:50.861Z,1.13
2022-08-05T10:26:14.261Z,2.25
2022-08-05T10:28:46.474Z,2.45
2022-08-05T10:32:54.652Z,7.60
2022-08-05T10:34:07.006Z,4.90
2022-08-05T10:36:40.927Z,4.80
2022-08-05T10:39:24.870Z,4.60
2022-08-05T10:42:32.445Z,2.55
2022-08-05T10:45:21.611Z,3.38
2022-08-05T10:48:31.305Z,2.78
2022-08-05T10:51:03.350Z,3.00
2022-08-05T10:53:42.748Z,5.47
2022-08-05T10:56:25.134Z,2.08
2022-08-05T10:58:55.946Z,1.60
2022-08-05T11:01:55.216Z,1.70
2022-08-05T11:04:26.290Z,2.10
2022-08-05T11:07:06.483Z,2.47
2022-08-05T11:09:46.639Z,2.83
2022-08-05T11:12:29.532Z,1.45
2022-08-05T11:15:59.294Z,2.63
2022-08-05T11:18:34.150Z,5.22
2022-08-05T11:21:11.490Z,5.18
2022-08-05T11:24:04.648Z,5.25
2022-08-05T11:26:32.391Z,1.73
2022-08-05T11:29:13.059Z,4.80
2022-08-05T11:31:58.242Z,2.25
2022-08-05T11:34:39.612Z,5.57
2022-08-05T11:38:29.218Z,4.53
2022-08-05T11:40:00.858Z,5.97
2022-08-05T11:42:38.127Z,7.07
2022-08-05T11:45:23.438Z,4.90
2022-08-05T11:47:57.160Z,7.40
2022-08-05T11:50:26.762Z,7.72
2022-08-05T11:52:57.944Z,3.65
2022-08-05T11:58:10.168Z,2.70
2022-08-05T12:00:41.363Z,3.15
2022-08-05T12:03:28.674Z,2.45
2022-08-05T12:06:06.665Z,1.95
2022-08-05T12:08:53.117Z,1.40
2022-08-05T12:11:23.838Z,5.05
2022-08-05T12:14:04.514Z,3.55
2022-08-05T12:16:34.499Z,6.07
2022-08-05T12:19:08.327Z,3.22
2022-08-05T12:21:46.903Z,4.93
2022-08-05T12:24:20.354Z,2.67
2022-08-05T12:26:50.170Z,1.73
2022-08-05T12:29:22.522Z,2.88
2022-08-05T12:32:01.954Z,3.50
2022-08-05T12:34:32.581Z,2.55
2022-08-05T12:37:16.970Z,4.57
2022-08-05T12:39:51.068Z,2.92
2022-08-05T12:42:21.088Z,2.67
2022-08-05T12:44:49.154Z,9.65
2022-08-05T12:47:30.710Z,6.95
2022-08-05T12:50:02.244Z,2.58
2022-08-05T12:52:41.962Z,6.75
2022-08-05T12:55:36.735Z,4.93
2022-08-05T12:58:49.459Z,8.45
2022-08-05T13:02:02.433Z,3.15
2022-08-05T13:03:42.114Z,3.40
2022-08-05T13:06:16.942Z,7.57
2022-08-05T13:08:52.049Z,2.38
2022-08-05T13:12:01.741Z,7.25
2022-08-05T13:14:24.821Z,2.10
2022-08-05T13:17:16.279Z,6.68
2022-08-05T13:20:06.531Z,5.28
2022-08-05T13:22:43.390Z,6.57
2022-08-05T13:25:18.773Z,4.18
2022-08-05T13:27:50.587Z,5.45
2022-08-05T13:30:34.712Z,8.00
2022-08-05T13:33:03.813Z,6.60
2022-08-05T13:35:42.777Z,6.32
2022-08-05T13:38:20.252Z,2.95
2022-08-05T13:41:01.134Z,4.55
2022-08-05T13:43:45.722Z,2.38
2022-08-05T13:46:30.847Z,7.07
2022-08-05T13:49:04.780Z,3.70
2022-08-05T13:51:41.621Z,3.40
2022-08-05T13:54:15.372Z,2.83
2022-08-05T13:56:50.688Z,6.65
2022-08-05T13:59:24.840Z,3.28
2022-08-05T14:01:57.911Z,7.20
2022-08-05T14:05:05.219Z,3.72
2022-08-05T14:08:01.223Z,7.40
2022-08-05T14:10:31.130Z,4.28
2022-08-05T14:12:59.843Z,3.55
2022-08-05T14:16:07.758Z,2.40
2022-08-05T14:18:17.885Z,4.40
2022-08-05T14:20:48.237Z,4.25
2022-08-05T14:23:19.137Z,2.15
2022-08-05T14:25:58.910Z,4.00
2022-08-05T14:28:30.799Z,4.10
2022-08-05T14:30:59.777Z,5.53
2022-08-05T14:33:57.013Z,9.40
2022-08-05T14:36:20.627Z,6.60
2022-08-05T14:38:50.219Z,4.15
2022-08-05T14:41:18.678Z,3.63
2022-08-05T14:43:59.722Z,7.18
2022-08-05T14:46:35.152Z,3.80
2022-08-05T14:49:06.441Z,5.07
2022-08-05T14:51:38.925Z,7.05
2022-08-05T14:54:28.458Z,6.47
2022-08-05T14:56:58.607Z,4.65
2022-08-05T14:59:29.657Z,2.40
2022-08-05T15:02:15.854Z,3.53
2022-08-05T15:04:43.889Z,4.57
2022-08-05T15:08:06.697Z,2.83
2022-08-05T15:10:01.418Z,3.42
2022-08-05T15:12:40.913Z,2.22
2022-08-05T15:15:16.794Z,4.53
2022-08-05T15:18:05.710Z,3.05
2022-08-05T15:20:33.950Z,3.42
2022-08-05T15:23:09.829Z,6.35
2022-08-05T15:25:51.965Z,5.38
2022-08-05T15:28:24.430Z,5.65
2022-08-05T15:30:55.646Z,4.05
2022-08-05T15:34:05.762Z,3.83
2022-08-05T15:36:17.690Z,5.65
2022-08-05T15:40:41.511Z,4.93
2022-08-05T15:41:57.533Z,2.88
2022-08-05T15:44:29.974Z,3.08
2022-08-05T15:46:59.283Z,2.00
2022-08-05T15:49:47.921Z,5.38
2022-08-05T15:52:16.777Z,3.78
2022-08-05T15:54:57.191Z,3.75
2022-08-05T15:57:24.882Z,8.20
2022-08-05T15:59:57.587Z,12.70
2022-08-05T16:02:28.840Z,6.18
2022-08-05T16:04:56.421Z,5.57
2022-08-05T16:07:23.862Z,4.50
2022-08-05T16:09:51.302Z,5.93
2022-08-05T16:12:21.651Z,7.38
2022-08-05T16:14:49.063Z,7.60
2022-08-05T16:17:16.469Z,4.45
2022-08-05T16:20:04.526Z,2.85
2022-08-05T16:22:34.107Z,3.53
2022-08-05T16:25:05.339Z,3.88
2022-08-05T16:28:00.453Z,8.32
2022-08-05T16:30:28.769Z,2.95
2022-08-05T16:32:57.939Z,5.60
2022-08-05T16:35:28.691Z,5.60
2022-08-05T16:38:15.604Z,2.20
2022-08-05T16:40:51.966Z,6.05
2022-08-05T16:43:28.093Z,10.68
2022-08-05T16:46:04.703Z,6.88
2022-08-05T16:48:38.282Z,5.05
2022-08-05T16:51:08.946Z,3.83
2022-08-05T16:56:30.919Z,3.50
2022-08-05T16:58:58.914Z,3.47
2022-08-05T17:01:53.037Z,7.00
2022-08-05T17:04:16.137Z,4.15
2022-08-05T17:06:46.259Z,2.95
2022-08-05T17:09:24.383Z,3.78
2022-08-05T17:11:59.841Z,7.90
2022-08-05T17:14:36.987Z,6.35
2022-08-05T17:17:14.553Z,7.18
2022-08-05T17:19:45.442Z,2.35
2022-08-05T17:22:24.358Z,4.30
2022-08-05T17:24:57.573Z,5.68
2022-08-05T17:27:33.678Z,6.32
2022-08-05T17:30:11.958Z,3.88
2022-08-05T17:32:46.503Z,6.45
2022-08-05T17:35:15.489Z,4.45
2022-08-05T17:37:45.367Z,2.35
2022-08-05T17:40:17.623Z,6.65
2022-08-05T17:42:50.627Z,7.50
2022-08-05T17:45:22.195Z,6.68
2022-08-05T17:47:54.846Z,3.88
2022-08-05T17:50:28.952Z,7.07
2022-08-05T17:53:02.652Z,5.43
2022-08-05T17:55:37.437Z,6.47
2022-08-05T17:58:13.327Z,8.25
2022-08-05T18:00:45.228Z,9.23
2022-08-05T18:03:39.281Z,7.78
2022-08-05T18:06:06.328Z,6.53
2022-08-05T18:08:39.013Z,12.15
2022-08-05T18:11:24.603Z,7.93
2022-08-05T18:14:01.219Z,13.25
2022-08-05T18:16:32.469Z,4.82
2022-08-05T18:18:59.905Z,4.72
2022-08-05T18:22:07.229Z,4.95
2022-08-05T18:24:14.846Z,4.63
2022-08-05T18:26:43.825Z,4.53
2022-08-05T18:29:11.536Z,4.00
2022-08-05T18:31:42.987Z,9.75
2022-08-05T18:34:12.223Z,6.38
2022-08-05T18:36:41.277Z,3.40
2022-08-05T18:39:41.849Z,6.75
2022-08-05T18:42:04.918Z,8.23
2022-08-05T18:44:55.376Z,4.80
2022-08-05T18:47:26.603Z,7.63
2022-08-05T18:50:15.416Z,6.28
2022-08-05T18:52:50.759Z,5.55
2022-08-05T18:55:20.465Z,9.25
2022-08-05T18:57:53.990Z,4.85
2022-08-05T19:00:28.762Z,12.20
2022-08-05T19:03:03.134Z,9.00
2022-08-05T19:06:11.561Z,9.93
2022-08-05T19:08:21.690Z,12.85
2022-08-05T19:10:50.392Z,10.88
2022-08-05T19:13:18.133Z,7.85
2022-08-05T19:15:59.515Z,8.90
2022-08-05T19:18:28.741Z,7.25
2022-08-05T19:20:56.545Z,8.25
2022-08-05T19:24:06.902Z,5.90
2022-08-05T19:26:12.077Z,7.40
2022-08-05T19:28:43.325Z,6.93
2022-08-05T19:31:13.582Z,8.48
2022-08-05T19:33:48.528Z,9.45
2022-08-05T19:36:25.766Z,10.45
2022-08-05T19:39:00.645Z,6.72
2022-08-05T19:42:05.620Z,4.43
2022-08-05T19:44:19.898Z,7.28
2022-08-05T19:46:47.478Z,3.85
2022-08-05T19:49:18.193Z,8.30
2022-08-05T19:52:05.301Z,7.53
2022-08-05T19:54:34.850Z,4.30
2022-08-05T19:57:09.332Z,4.53
2022-08-05T19:59:55.577Z,8.77
2022-08-05T20:02:26.887Z,3.53
2022-08-05T20:04:58.414Z,8.30
2022-08-05T20:07:47.244Z,8.13
2022-08-05T20:10:16.140Z,5.15
2022-08-05T20:12:46.393Z,8.25
2022-08-05T20:15:23.147Z,3.83
2022-08-05T20:18:10.222Z,10.93
2022-08-05T20:20:57.158Z,4.03
2022-08-05T20:23:39.569Z,7.35
2022-08-05T20:26:16.474Z,7.20
2022-08-05T20:28:56.266Z,9.48
2022-08-05T20:31:36.785Z,6.43
2022-08-05T20:34:11.618Z,6.88
2022-08-05T20:36:43.555Z,11.40
2022-08-05T20:39:13.245Z,13.47
2022-08-05T20:41:43.724Z,4.22
2022-08-05T20:44:19.204Z,7.15
2022-08-05T20:47:03.108Z,10.82
2022-08-05T20:49:38.034Z,9.38
2022-08-05T20:52:08.413Z,8.10
2022-08-05T20:54:43.214Z,9.10
2022-08-05T20:57:42.096Z,12.15
2022-08-05T21:00:40.099Z,5.35
2022-08-05T21:03:07.394Z,2.80
2022-08-05T21:05:48.264Z,10.88
2022-08-05T21:08:41.831Z,3.35
2022-08-05T21:11:12.768Z,6.85
2022-08-05T21:13:47.745Z,7.70
2022-08-05T21:16:29.556Z,3.15
2022-08-05T21:19:00.435Z,2.88
2022-08-05T21:21:44.006Z,7.13
2022-08-05T21:24:16.905Z,5.13
2022-08-05T21:26:53.612Z,6.60
2022-08-05T21:29:31.732Z,10.18
2022-08-05T21:32:01.362Z,3.42
2022-08-05T21:34:29.163Z,4.88
2022-08-05T21:36:59.278Z,5.95
2022-08-05T21:39:27.812Z,7.95
2022-08-05T21:42:01.705Z,11.30
2022-08-05T21:44:31.081Z,7.88
2022-08-05T21:47:00.168Z,4.03
2022-08-05T21:49:48.599Z,8.93
2022-08-05T21:52:26.716Z,4.32
2022-08-05T21:54:57.823Z,2.60
2022-08-05T21:57:35.611Z,10.18
2022-08-05T22:00:06.945Z,5.47
2022-08-05T22:02:42.589Z,6.07
2022-08-05T22:05:11.438Z,7.18
2022-08-05T22:07:58.518Z,8.57
2022-08-05T22:10:27.657Z,6.03
2022-08-05T22:12:57.265Z,7.95
2022-08-05T22:15:56.521Z,7.40
2022-08-05T22:18:14.495Z,7.10
2022-08-05T22:20:44.269Z,8.95
2022-08-05T22:24:00.865Z,9.15
2022-08-05T22:26:38.332Z,13.65
2022-08-05T22:29:06.709Z,5.18
2022-08-05T22:31:44.901Z,6.40
2022-08-05T22:34:12.850Z,6.60
2022-08-05T22:36:48.187Z,6.10
2022-08-05T22:39:19.879Z,11.95
2022-08-05T22:42:11.191Z,5.03
2022-08-05T22:44:36.418Z,13.02
2022-08-05T22:47:04.974Z,8.18
2022-08-05T22:50:21.633Z,4.72
2022-08-05T22:52:30.145Z,9.27
2022-08-05T22:54:59.768Z,8.35
2022-08-05T22:57:27.567Z,5.00
2022-08-05T23:00:09.263Z,6.47
2022-08-05T23:02:38.503Z,9.57
2022-08-05T23:05:15.269Z,5.85
2022-08-05T23:07:45.021Z,3.47
2022-08-05T23:10:19.682Z,6.47
2022-08-05T23:12:51.690Z,6.82
2022-08-05T23:15:29.825Z,6.05
2022-08-05T23:18:03.322Z,3.95
2022-08-05T23:20:32.752Z,6.93
2022-08-05T23:23:03.461Z,6.95
2022-08-05T23:25:51.447Z,4.30
2022-08-05T23:28:22.356Z,4.47
2022-08-05T23:30:54.078Z,8.90
2022-08-05T23:33:26.238Z,5.80
2022-08-05T23:36:10.993Z,5.35
2022-08-05T23:38:42.095Z,6.53
2022-08-05T23:41:11.075Z,11.10
2022-08-05T23:44:04.983Z,9.18
2022-08-05T23:46:26.382Z,6.68
2022-08-05T23:49:00.277Z,9.15
2022-08-05T23:51:53.532Z,6.32
2022-08-05T23:54:34.134Z,8.65
2022-08-05T23:57:06.082Z,8.38
